Time;durP1;ratioP1;P1;durP2;ratioP2;P2;SDS_P1;SDS_P2;PMS_P1;PMS_P2;Temp;Humidity;BMP_temperature;BMP_pressure;BME280_temperature;BME280_humidity;BME280_pressure;Samples;Min_cycle;Max_cycle;Signal;HPM_P1;HPM_P2
2022/08/13 00:00:24;;;;;;;;;;;;;;;29.09;45.41;99118.63;2097552;28;19918;-71
2022/08/13 00:01:26;;;;;;;;;;;;;;;29.08;45.38;99115.03;2098193;28;19920;-71
2022/08/13 00:02:28;;;;;;;;;;;;;;;29.09;45.52;99113.09;2097899;28;20063;-71
2022/08/13 00:03:30;;;;;;;;;;;;;;;29.08;45.33;99108.63;2098060;28;19934;-71
2022/08/13 00:04:30;;;;;;;;;;;;;;;29.09;45.44;99113.09;2098700;28;19904;-71
2022/08/13 00:05:31;;;;;;;;;;;;;;;29.08;45.37;99122.47;2100667;28;19904;-71
2022/08/13 00:07:35;;;;;;;;;;;;;;;29.08;45.43;99122.47;2097185;28;19916;-71
2022/08/13 00:08:37;;;;;;;;;;;;;;;29.08;45.49;99133.56;2097590;28;19916;-70
2022/08/13 00:09:39;;;;;;;;;;;;;;;29.08;45.37;99122.47;2098546;28;20034;-71
2022/08/13 00:10:40;;;;;;;;;;;;;;;29.08;45.38;99128.03;2082239;28;19917;-71
2022/08/13 00:13:03;;;;;;;;;;;;;;;29.07;45.36;99110.53;2098431;28;19916;-71
2022/08/13 00:14:04;;;;;;;;;;;;;;;29.07;45.40;99107.78;2096260;28;20689;-70
2022/08/13 00:15:12;;;;;;;;;;;;;;;29.08;45.30;99116.94;2097715;28;19905;-70
2022/08/13 00:16:13;;;;;;;;;;;;;;;29.08;45.46;99116.94;2096645;28;20222;-70
2022/08/13 00:17:14;;;;;;;;;;;;;;;29.08;45.15;99119.72;2094073;28;19912;-71
2022/08/13 00:18:16;;;;;;;;;;;;;;;29.06;45.31;99114.41;2095645;28;19919;-71
2022/08/13 00:19:19;;;;;;;;;;;;;;;29.06;45.19;99114.41;2095182;28;19912;-71
2022/08/13 00:20:20;;;;;;;;;;;;;;;29.05;45.26;99124.63;2098899;28;20406;-71
2022/08/13 00:21:21;;;;;;;;;;;;;;;29.06;45.32;99115.25;2097558;28;20330;-71
2022/08/13 00:22:22;;;;;;;;;;;;;;;29.06;45.08;99109.72;2092321;28;20410;-71
2022/08/13 00:23:23;;;;;;;;;;;;;;;29.06;45.01;99115.25;2091187;28;20347;-71
2022/08/13 00:24:24;;;;;;;;;;;;;;;29.06;45.05;99109.72;2097447;28;19916;-70
2022/08/13 00:25:25;;;;;;;;;;;;;;;29.05;45.13;99113.50;2099359;28;19964;-70
2022/08/13 00:26:26;;;;;;;;;;;;;;;29.05;44.92;99113.50;2097801;28;20298;-71
2022/08/13 00:27:28;;;;;;;;;;;;;;;29.05;45.13;99118.22;2098096;28;19939;-70
2022/08/13 00:28:29;;;;;;;;;;;;;;;29.05;45.04;99121.84;2099446;28;19912;-71
2022/08/13 00:29:29;;;;;;;;;;;;;;;29.05;45.04;99119.06;2094489;28;19916;-71
2022/08/13 00:30:38;;;;;;;;;;;;;;;29.05;45.20;99118.22;2092248;28;19923;-71
2022/08/13 00:31:39;;;;;;;;;;;;;;;29.05;45.20;99118.22;2091625;28;19916;-71
2022/08/13 00:32:40;;;;;;;;;;;;;;;29.05;45.35;99118.22;2093223;28;19965;-71
2022/08/13 00:33:40;;;;;;;;;;;;;;;29.06;45.30;99125.50;2098092;28;19919;-71
2022/08/13 00:34:40;;;;;;;;;;;;;;;29.04;45.34;99117.38;2097345;28;19930;-71
2022/08/13 00:35:42;;;;;;;;;;;;;;;29.04;45.42;99111.84;2096846;28;19905;-71
2022/08/13 00:36:42;;;;;;;;;;;;;;;29.04;45.33;99114.63;2092684;28;19913;-70
2022/08/13 00:37:42;;;;;;;;;;;;;;;29.05;45.31;99123.78;2094531;28;19923;-71
2022/08/13 00:38:44;;;;;;;;;;;;;;;29.05;45.47;99109.91;2097908;28;19912;-71
2022/08/13 00:39:46;;;;;;;;;;;;;;;29.05;45.40;99121.00;2094884;28;19989;-71
2022/08/13 00:40:48;;;;;;;;;;;;;;;29.04;45.42;99114.63;2098047;28;19923;-71
2022/08/13 00:41:48;;;;;;;;;;;;;;;29.04;45.25;99117.38;2089409;28;19913;-71
2022/08/13 00:42:50;;;;;;;;;;;;;;;29.05;45.24;99118.22;2091798;28;19916;-71
2022/08/13 00:43:50;;;;;;;;;;;;;;;29.04;45.35;99117.38;2097449;28;19912;-71
2022/08/13 00:44:51;;;;;;;;;;;;;;;29.04;45.32;99125.72;2095873;28;20044;-71
2022/08/13 00:45:52;;;;;;;;;;;;;;;29.05;45.03;99123.78;2096152;28;19912;-71
2022/08/13 00:48:41;;;;;;;;;;;;;;;29.05;45.16;99127.38;2095447;28;19962;-71
2022/08/13 00:49:31;;;;;;;;;;;;;;;29.05;45.30;99130.16;2099517;28;19919;-71
2022/08/13 00:50:32;;;;;;;;;;;;;;;29.04;45.09;99134.03;2092945;28;19920;-70
2022/08/13 00:51:34;;;;;;;;;;;;;;;29.04;45.11;99134.03;2090723;28;19989;-71
2022/08/13 00:52:38;;;;;;;;;;;;;;;29.04;45.07;99136.81;2094255;28;20320;-71
2022/08/13 00:53:39;;;;;;;;;;;;;;;29.04;45.26;99136.81;2094750;28;19951;-71
2022/08/13 00:54:42;;;;;;;;;;;;;;;29.04;45.07;99134.03;2097957;28;19969;-71
2022/08/13 00:55:45;;;;;;;;;;;;;;;29.06;44.96;99136.63;2097479;28;20025;-71
2022/08/13 00:56:45;;;;;;;;;;;;;;;29.04;45.14;99128.47;2094140;28;19919;-71
2022/08/13 00:57:47;;;;;;;;;;;;;;;29.05;45.03;99134.88;2094570;28;19958;-70
2022/08/13 00:58:48;;;;;;;;;;;;;;;29.05;45.05;99140.41;2091732;28;19912;-71
2022/08/13 00:59:51;;;;;;;;;;;;;;;29.04;44.96;99131.25;2093195;28;19908;-71
2022/08/13 01:00:53;;;;;;;;;;;;;;;29.03;45.07;99137.91;2091552;28;19912;-71
2022/08/13 01:01:54;;;;;;;;;;;;;;;29.03;45.05;99137.03;2091754;28;20445;-71
2022/08/13 01:02:55;;;;;;;;;;;;;;;29.04;45.03;99141.53;2097326;28;20369;-71
2022/08/13 01:03:55;;;;;;;;;;;;;;;29.03;45.10;99137.91;2096270;28;19912;-71
2022/08/13 01:04:56;;;;;;;;;;;;;;;29.04;45.40;99133.19;2097441;28;19919;-71
2022/08/13 01:05:59;;;;;;;;;;;;;;;29.03;45.26;99137.91;2096437;28;19918;-71
2022/08/13 01:07:01;;;;;;;;;;;;;;;29.02;45.46;99141.75;2090092;28;19912;-71
2022/08/13 01:08:02;;;;;;;;;;;;;;;29.02;45.43;99136.19;2097618;28;19943;-71
2022/08/13 01:09:03;;;;;;;;;;;;;;;29.03;45.39;99149.00;2095439;28;19916;-71
2022/08/13 01:10:04;;;;;;;;;;;;;;;29.03;45.53;99137.91;2096642;28;19905;-71
2022/08/13 01:11:05;;;;;;;;;;;;;;;29.04;45.47;99149.84;2093399;28;19927;-71
2022/08/13 01:12:07;;;;;;;;;;;;;;;29.02;45.48;99138.97;2096337;28;19912;-71
2022/08/13 01:13:09;;;;;;;;;;;;;;;29.02;45.14;99147.28;2097163;28;19916;-71
2022/08/13 01:14:10;;;;;;;;;;;;;;;29.03;45.25;99148.13;2092991;28;20006;-71
2022/08/13 01:15:13;;;;;;;;;;;;;;;29.02;45.31;99147.28;2095180;28;20302;-71
2022/08/13 01:16:14;;;;;;;;;;;;;;;29.03;45.39;99153.69;2089887;28;20373;-71
2022/08/13 01:17:14;;;;;;;;;;;;;;;29.03;45.36;99148.13;2094670;28;19920;-71
2022/08/13 01:18:15;;;;;;;;;;;;;;;29.03;45.37;99149.00;2089661;28;19952;-71
2022/08/13 01:19:15;;;;;;;;;;;;;;;29.03;45.31;99153.69;2097230;28;20626;-70
2022/08/13 01:20:21;;;;;;;;;;;;;;;29.01;45.19;99156.72;2090715;28;19917;-71
2022/08/13 01:21:23;;;;;;;;;;;;;;;29.03;45.10;99153.69;2096345;28;20570;-71
2022/08/13 01:22:28;;;;;;;;;;;;;;;29.02;45.22;99152.84;2094339;28;20003;-71
2022/08/13 01:23:29;;;;;;;;;;;;;;;29.03;45.17;99159.22;2098092;28;19919;-71
2022/08/13 01:24:30;;;;;;;;;;;;;;;29.02;45.14;99152.84;2097139;28;20421;-71
2022/08/13 01:25:31;;;;;;;;;;;;;;;29.02;45.20;99158.38;2094976;28;19923;-71
2022/08/13 01:26:32;;;;;;;;;;;;;;;29.02;45.13;99163.94;2096000;28;19935;-70
2022/08/13 01:27:36;;;;;;;;;;;;;;;29.02;45.24;99155.63;2098014;28;19912;-71
2022/08/13 01:28:40;;;;;;;;;;;;;;;29.02;45.24;99158.38;2097179;28;19916;-71
2022/08/13 01:29:40;;;;;;;;;;;;;;;29.02;45.04;99163.09;2094535;28;19974;-70
2022/08/13 01:30:45;;;;;;;;;;;;;;;29.02;45.17;99163.09;2090022;28;19966;-71
2022/08/13 01:31:45;;;;;;;;;;;;;;;29.02;45.10;99163.09;2095122;28;19912;-71
2022/08/13 01:32:46;;;;;;;;;;;;;;;29.01;45.14;99167.81;2097193;28;20417;-71
2022/08/13 01:33:47;;;;;;;;;;;;;;;29.00;44.99;99168.88;2094958;28;20035;-71
2022/08/13 01:34:48;;;;;;;;;;;;;;;29.01;45.23;99161.44;2092443;28;19965;-71
2022/08/13 01:35:49;;;;;;;;;;;;;;;29.01;45.01;99170.59;2092040;28;19924;-71
2022/08/13 01:36:49;;;;;;;;;;;;;;;29.01;45.30;99166.97;2092688;28;19917;-71
2022/08/13 01:37:53;;;;;;;;;;;;;;;29.00;45.33;99165.25;2091325;28;19913;-71
2022/08/13 01:38:53;;;;;;;;;;;;;;;29.00;45.36;99166.09;2097527;28;19918;-71
2022/08/13 01:39:53;;;;;;;;;;;;;;;29.00;45.35;99166.09;2094144;28;19920;-71
2022/08/13 01:40:54;;;;;;;;;;;;;;;29.00;45.36;99168.88;2089450;28;20056;-71
2022/08/13 01:41:55;;;;;;;;;;;;;;;29.01;45.37;99166.97;2090166;28;19982;-71
2022/08/13 01:42:57;;;;;;;;;;;;;;;29.00;45.25;99171.66;2093005;28;19908;-71
2022/08/13 01:44:04;;;;;;;;;;;;;;;29.00;45.21;99170.81;2094431;28;19923;-71
2022/08/13 01:45:05;;;;;;;;;;;;;;;29.00;45.27;99171.66;2095325;28;19904;-71
2022/08/13 01:46:07;;;;;;;;;;;;;;;29.00;45.16;99171.66;2094708;28;19926;-71
2022/08/13 01:51:13;;;;;;;;;;;;;;;28.99;45.05;99175.53;2091271;28;19916;-71
2022/08/13 01:52:14;;;;;;;;;;;;;;;28.99;45.09;99178.28;2097370;28;19920;-70
2022/08/13 01:53:16;;;;;;;;;;;;;;;28.99;45.21;99175.53;2094317;28;19936;-71
2022/08/13 01:54:17;;;;;;;;;;;;;;;29.00;45.16;99184.69;2093933;28;19959;-71
2022/08/13 01:55:21;;;;;;;;;;;;;;;28.99;45.03;99183.84;2096623;28;19916;-71
2022/08/13 01:56:22;;;;;;;;;;;;;;;28.99;45.03;99181.06;2083137;28;19929;-70
2022/08/13 01:57:23;;;;;;;;;;;;;;;28.99;45.15;99192.16;2086796;28;20395;-71
2022/08/13 01:58:24;;;;;;;;;;;;;;;28.99;44.81;99186.63;2085385;28;20290;-71
2022/08/13 01:59:25;;;;;;;;;;;;;;;28.99;44.92;99189.41;2095749;28;19916;-71
2022/08/13 02:00:25;;;;;;;;;;;;;;;28.98;44.99;99187.72;2088265;28;19904;-71
2022/08/13 02:01:26;;;;;;;;;;;;;;;28.99;44.94;99183.84;2081230;28;19913;-71
2022/08/13 02:02:27;;;;;;;;;;;;;;;28.99;44.86;99186.63;2088611;28;19926;-71
2022/08/13 02:03:28;;;;;;;;;;;;;;;28.99;45.02;99192.16;2087582;28;19961;-71
2022/08/13 02:04:29;;;;;;;;;;;;;;;28.99;45.09;99191.31;2083403;28;19921;-70
2022/08/13 02:05:29;;;;;;;;;;;;;;;28.98;44.87;99187.72;2083201;28;19993;-71
2022/08/13 02:06:30;;;;;;;;;;;;;;;28.98;45.04;99190.50;2081829;28;19912;-71
2022/08/13 02:07:31;;;;;;;;;;;;;;;28.98;44.94;99189.63;2083803;28;19912;-70
2022/08/13 02:08:33;;;;;;;;;;;;;;;28.98;45.01;99190.50;2088470;28;19916;-70
2022/08/13 02:09:33;;;;;;;;;;;;;;;28.98;44.93;99197.94;2084931;28;19908;-71
2022/08/13 02:10:40;;;;;;;;;;;;;;;28.98;45.01;99195.16;2072335;28;20016;-70
2022/08/13 02:11:41;;;;;;;;;;;;;;;28.98;45.01;99195.16;2074838;28;19964;-71
2022/08/13 02:12:43;;;;;;;;;;;;;;;28.97;44.95;99199.88;2087661;28;19947;-71
2022/08/13 02:13:43;;;;;;;;;;;;;;;28.97;44.82;99194.31;2079284;28;19935;-70
2022/08/13 02:14:43;;;;;;;;;;;;;;;28.97;44.89;99193.47;2079068;28;19913;-71
2022/08/13 02:15:45;;;;;;;;;;;;;;;28.97;44.85;99207.34;2095472;28;19912;-70
2022/08/13 02:16:45;;;;;;;;;;;;;;;28.97;45.05;99204.59;2091592;28;19979;-71
2022/08/13 02:17:46;;;;;;;;;;;;;;;28.97;44.99;99204.59;2084177;28;19923;-71
2022/08/13 02:18:46;;;;;;;;;;;;;;;28.96;45.14;99209.28;2094023;28;19916;-71
2022/08/13 02:19:46;;;;;;;;;;;;;;;28.97;45.01;99210.97;2080193;28;20833;-71
2022/08/13 02:20:48;;;;;;;;;;;;;;;28.96;44.88;99205.69;2084694;28;19916;-71
2022/08/13 02:21:48;;;;;;;;;;;;;;;28.95;44.94;99204.81;2083880;28;20035;-71
2022/08/13 02:22:49;;;;;;;;;;;;;;;28.95;44.86;99207.59;2090044;28;19917;-70
2022/08/13 02:23:53;;;;;;;;;;;;;;;28.96;44.94;99214.84;2087920;28;19917;-71
2022/08/13 02:24:56;;;;;;;;;;;;;;;28.96;44.88;99214.84;2093298;28;19985;-71
2022/08/13 02:25:56;;;;;;;;;;;;;;;28.96;44.84;99214.00;2086145;28;19911;-71
2022/08/13 02:26:57;;;;;;;;;;;;;;;28.95;44.75;99213.13;2087922;28;19917;-71
2022/08/13 02:27:58;;;;;;;;;;;;;;;28.96;44.72;99214.00;2088257;28;20003;-71
2022/08/13 02:29:00;;;;;;;;;;;;;;;28.95;44.71;99212.28;2082901;28;20477;-71
2022/08/13 02:30:01;;;;;;;;;;;;;;;28.95;44.45;99213.13;2084214;28;19959;-71
2022/08/13 02:31:01;;;;;;;;;;;;;;;28.95;44.46;99215.91;2086424;28;19920;-70
2022/08/13 02:32:01;;;;;;;;;;;;;;;28.95;44.42;99213.13;2085306;28;20383;-71
2022/08/13 02:33:05;;;;;;;;;;;;;;;28.94;44.40;99217.00;2087069;28;20428;-71
2022/08/13 02:34:05;;;;;;;;;;;;;;;28.95;44.38;99221.44;2086454;28;20045;-71
2022/08/13 02:35:08;;;;;;;;;;;;;;;28.95;44.21;99224.22;2086094;28;19970;-71
2022/08/13 02:36:10;;;;;;;;;;;;;;;28.95;44.27;99224.22;2082715;28;19928;-71
2022/08/13 02:37:11;;;;;;;;;;;;;;;28.94;44.32;99228.09;2079855;28;19916;-71
2022/08/13 02:38:12;;;;;;;;;;;;;;;28.95;44.20;99229.78;2077845;28;19999;-71
2022/08/13 02:39:12;;;;;;;;;;;;;;;28.95;44.24;99235.31;2085788;28;19920;-71
2022/08/13 02:41:43;;;;;;;;;;;;;;;28.94;44.14;99241.97;2086006;28;19916;-71
2022/08/13 02:42:43;;;;;;;;;;;;;;;28.94;44.04;99233.66;2079047;28;20315;-71
2022/08/13 02:43:46;;;;;;;;;;;;;;;28.93;43.65;99243.03;2088385;28;19912;-70
2022/08/13 02:44:48;;;;;;;;;;;;;;;28.92;43.92;99241.34;2087876;28;19963;-71
2022/08/13 02:45:48;;;;;;;;;;;;;;;28.91;43.56;99245.22;2082365;28;19944;-71
2022/08/13 02:46:50;;;;;;;;;;;;;;;28.91;43.68;99244.34;2078547;28;19920;-71
2022/08/13 02:47:51;;;;;;;;;;;;;;;28.91;43.46;99245.22;2087149;28;19904;-71
2022/08/13 02:48:52;;;;;;;;;;;;;;;28.89;43.36;99241.81;2082770;28;19919;-71
2022/08/13 02:49:52;;;;;;;;;;;;;;;28.89;42.96;99241.81;2073624;28;19927;-71
2022/08/13 02:50:55;;;;;;;;;;;;;;;28.91;43.18;99250.75;2072789;28;19921;-71
2022/08/13 02:51:55;;;;;;;;;;;;;;;28.91;42.90;99248.00;2088849;28;20006;-71
2022/08/13 02:52:56;;;;;;;;;;;;;;;28.92;43.13;99251.59;2081351;28;19912;-71
2022/08/13 02:53:59;;;;;;;;;;;;;;;28.92;43.13;99249.66;2089461;28;19959;-71
2022/08/13 02:54:59;;;;;;;;;;;;;;;28.92;42.89;99257.16;2084222;28;19913;-71
2022/08/13 02:55:59;;;;;;;;;;;;;;;28.92;43.01;99254.38;2090905;28;19920;-71
2022/08/13 02:57:00;;;;;;;;;;;;;;;28.92;43.06;99252.44;2096099;28;19912;-70
2022/08/13 02:58:01;;;;;;;;;;;;;;;28.92;43.08;99260.78;2092243;28;20011;-71
2022/08/13 02:59:02;;;;;;;;;;;;;;;28.92;43.02;99251.59;2095697;28;19916;-70
2022/08/13 03:00:03;;;;;;;;;;;;;;;28.92;43.12;99246.06;2096578;28;20003;-71
2022/08/13 03:01:03;;;;;;;;;;;;;;;28.92;42.96;99258.00;2094635;28;19919;-71
2022/08/13 03:02:04;;;;;;;;;;;;;;;28.91;43.00;99250.75;2088916;28;19916;-71
2022/08/13 03:03:05;;;;;;;;;;;;;;;28.92;43.08;99251.59;2093894;28;19912;-70
2022/08/13 03:04:06;;;;;;;;;;;;;;;28.91;43.01;99250.75;2088391;28;19920;-71
2022/08/13 03:05:10;;;;;;;;;;;;;;;28.92;43.04;99251.59;2095407;28;20003;-71
2022/08/13 03:06:10;;;;;;;;;;;;;;;28.91;42.99;99261.84;2095625;28;19922;-71
2022/08/13 03:07:10;;;;;;;;;;;;;;;28.90;43.01;99254.59;2087386;28;19924;-71
2022/08/13 03:08:11;;;;;;;;;;;;;;;28.91;42.95;99261.00;2094850;28;19962;-71
2022/08/13 03:09:12;;;;;;;;;;;;;;;28.90;43.04;99257.38;2096694;28;19919;-71
2022/08/13 03:10:14;;;;;;;;;;;;;;;28.91;43.18;99261.84;2094747;28;20002;-70
2022/08/13 03:11:14;;;;;;;;;;;;;;;28.90;43.32;99260.16;2094505;28;19965;-71
2022/08/13 03:12:16;;;;;;;;;;;;;;;28.90;42.97;99260.16;2092136;28;19916;-71
2022/08/13 03:13:21;;;;;;;;;;;;;;;28.89;43.10;99264.00;2094900;28;20278;-71
2022/08/13 03:14:22;;;;;;;;;;;;;;;28.89;42.93;99266.78;2091633;28;19920;-71
2022/08/13 03:15:23;;;;;;;;;;;;;;;28.89;42.96;99257.63;2093799;28;19916;-70
2022/08/13 03:16:25;;;;;;;;;;;;;;;28.88;43.01;99262.31;2096368;28;20393;-71
2022/08/13 03:17:25;;;;;;;;;;;;;;;28.88;43.01;99265.09;2089993;28;20003;-71
2022/08/13 03:18:26;;;;;;;;;;;;;;;28.87;42.92;99263.41;2094770;28;19919;-71
2022/08/13 03:19:26;;;;;;;;;;;;;;;28.87;42.95;99266.19;2096342;28;20417;-71
2022/08/13 03:20:27;;;;;;;;;;;;;;;28.86;43.13;99264.50;2097556;28;19952;-71
2022/08/13 03:21:30;;;;;;;;;;;;;;;28.87;42.89;99268.94;2095708;28;19920;-70
2022/08/13 03:22:30;;;;;;;;;;;;;;;28.88;43.06;99269.78;2097154;28;19919;-71
2022/08/13 03:23:32;;;;;;;;;;;;;;;28.87;42.87;99271.72;2093098;28;19947;-71
2022/08/13 03:24:33;;;;;;;;;;;;;;;28.87;42.91;99271.72;2095518;28;19935;-71
2022/08/13 03:25:34;;;;;;;;;;;;;;;28.88;43.00;99273.41;2096993;28;20592;-71
2022/08/13 03:26:35;;;;;;;;;;;;;;;28.88;42.98;99270.63;2089964;28;20437;-70
2022/08/13 03:27:35;;;;;;;;;;;;;;;28.88;43.15;99272.56;2089438;28;20022;-71
2022/08/13 03:28:35;;;;;;;;;;;;;;;28.87;43.10;99274.50;2094846;28;19912;-71
2022/08/13 03:29:38;;;;;;;;;;;;;;;28.87;43.04;99271.72;2097311;28;20714;-71
2022/08/13 03:30:38;;;;;;;;;;;;;;;28.87;42.98;99277.28;2094439;28;19937;-70
2022/08/13 03:31:39;;;;;;;;;;;;;;;28.87;43.08;99271.72;2092224;28;20375;-70
2022/08/13 03:32:40;;;;;;;;;;;;;;;28.86;43.07;99272.81;2096362;28;19920;-70
2022/08/13 03:33:41;;;;;;;;;;;;;;;28.87;43.08;99280.03;2091885;28;19918;-71
2022/08/13 03:34:42;;;;;;;;;;;;;;;28.87;43.09;99276.44;2092711;28;19923;-70
2022/08/13 03:35:43;;;;;;;;;;;;;;;28.86;43.09;99270.03;2093923;28;19912;-70
2022/08/13 03:36:43;;;;;;;;;;;;;;;28.87;43.16;99277.28;2093724;28;19946;-71
2022/08/13 03:37:46;;;;;;;;;;;;;;;28.87;43.13;99277.28;2096835;28;20700;-71
2022/08/13 03:38:46;;;;;;;;;;;;;;;28.86;43.17;99281.13;2096863;28;19908;-71
2022/08/13 03:39:47;;;;;;;;;;;;;;;28.85;43.23;99274.72;2094403;28;20645;-71
2022/08/13 03:41:02;;;;;;;;;;;;;;;28.86;43.24;99275.59;2095160;28;19922;-71
2022/08/13 03:42:02;;;;;;;;;;;;;;;28.86;43.11;99278.38;2096057;28;19920;-71
2022/08/13 03:43:09;;;;;;;;;;;;;;;28.86;43.23;99281.13;2095315;28;19915;-71
2022/08/13 03:44:09;;;;;;;;;;;;;;;28.85;43.11;99273.88;2089308;28;19999;-70
2022/08/13 03:45:10;;;;;;;;;;;;;;;28.86;43.28;99281.13;2093487;28;20391;-71
2022/08/13 03:46:12;;;;;;;;;;;;;;;28.86;43.03;99275.59;2098447;28;19913;-71
2022/08/13 03:47:13;;;;;;;;;;;;;;;28.86;43.37;99275.59;2090739;28;19920;-70
2022/08/13 03:48:15;;;;;;;;;;;;;;;28.84;43.14;99272.19;2090265;28;20397;-71
2022/08/13 03:49:15;;;;;;;;;;;;;;;28.84;43.34;99273.03;2095181;28;19919;-70
2022/08/13 03:50:16;;;;;;;;;;;;;;;28.85;43.40;99276.66;2097056;28;19904;-71
2022/08/13 03:51:17;;;;;;;;;;;;;;;28.84;43.31;99284.13;2095611;28;20187;-70
2022/08/13 03:52:17;;;;;;;;;;;;;;;28.83;43.51;99278.81;2084840;28;19912;-71
2022/08/13 03:53:18;;;;;;;;;;;;;;;28.83;43.45;99276.91;2091640;28;19954;-71
2022/08/13 03:54:18;;;;;;;;;;;;;;;28.82;43.36;99274.34;2088826;28;20287;-71
2022/08/13 03:55:18;;;;;;;;;;;;;;;28.82;43.56;99277.13;2093398;28;19986;-71
2022/08/13 03:56:20;;;;;;;;;;;;;;;28.81;43.50;99273.50;2090739;28;20019;-71
2022/08/13 03:57:22;;;;;;;;;;;;;;;28.82;43.43;99279.91;2092167;28;19916;-71
2022/08/13 03:58:23;;;;;;;;;;;;;;;28.82;43.50;99283.50;2096911;28;19947;-71
2022/08/13 03:59:23;;;;;;;;;;;;;;;28.83;43.46;99276.03;2094395;28;20413;-70
2022/08/13 04:00:28;;;;;;;;;;;;;;;28.83;43.62;99273.25;2089571;28;20337;-71
2022/08/13 04:01:28;;;;;;;;;;;;;;;28.83;43.40;99284.34;2095791;28;19912;-71
2022/08/13 04:02:28;;;;;;;;;;;;;;;28.82;43.50;99285.44;2093804;28;19912;-71
2022/08/13 04:03:29;;;;;;;;;;;;;;;28.82;43.60;99274.34;2094477;28;19904;-71
2022/08/13 04:04:30;;;;;;;;;;;;;;;28.83;43.53;99279.69;2090834;28;19927;-71
2022/08/13 04:05:30;;;;;;;;;;;;;;;28.83;43.42;99287.13;2097154;28;19927;-71
2022/08/13 04:06:30;;;;;;;;;;;;;;;28.83;43.62;99287.13;2092214;28;20321;-71
2022/08/13 04:07:31;;;;;;;;;;;;;;;28.83;43.53;99288.00;2094989;28;19942;-71
2022/08/13 04:08:35;;;;;;;;;;;;;;;28.84;43.41;99288.84;2094009;28;19925;-71
2022/08/13 04:09:35;;;;;;;;;;;;;;;28.83;43.68;99292.69;2095109;28;20675;-71
2022/08/13 04:10:36;;;;;;;;;;;;;;;28.83;43.54;99287.13;2097461;28;20024;-71
2022/08/13 04:11:36;;;;;;;;;;;;;;;28.83;43.67;99288.00;2096043;28;19985;-70
2022/08/13 04:12:37;;;;;;;;;;;;;;;28.83;43.70;99298.22;2093799;28;19924;-71
2022/08/13 04:13:38;;;;;;;;;;;;;;;28.82;43.86;99285.44;2096018;28;19916;-71
2022/08/13 04:14:42;;;;;;;;;;;;;;;28.83;43.74;99284.34;2091760;28;19912;-70
2022/08/13 04:15:43;;;;;;;;;;;;;;;28.82;43.69;99296.53;2089151;28;19947;-71
2022/08/13 04:16:45;;;;;;;;;;;;;;;28.81;43.83;99295.69;2094673;28;20283;-71
2022/08/13 04:17:45;;;;;;;;;;;;;;;28.82;43.84;99285.44;2095681;28;19916;-71
2022/08/13 04:18:46;;;;;;;;;;;;;;;28.81;43.68;99289.28;2093825;28;19920;-71
2022/08/13 04:19:47;;;;;;;;;;;;;;;28.80;43.76;99287.59;2090458;28;19963;-71
2022/08/13 04:20:52;;;;;;;;;;;;;;;28.81;43.82;99290.16;2092853;28;19920;-71
2022/08/13 04:21:52;;;;;;;;;;;;;;;28.81;44.00;99283.72;2090611;28;19942;-70
2022/08/13 04:22:54;;;;;;;;;;;;;;;28.80;44.02;99284.84;2095316;28;20367;-70
2022/08/13 04:23:54;;;;;;;;;;;;;;;28.81;44.04;99289.28;2091174;28;20006;-71
2022/08/13 04:24:55;;;;;;;;;;;;;;;28.80;43.94;99295.91;2088589;28;19917;-71
2022/08/13 04:25:55;;;;;;;;;;;;;;;28.79;43.97;99291.47;2095754;28;19916;-71
2022/08/13 04:26:58;;;;;;;;;;;;;;;28.79;43.94;99297.00;2093259;28;19916;-71
2022/08/13 04:27:59;;;;;;;;;;;;;;;28.79;44.16;99305.34;2089088;28;20017;-71
2022/08/13 04:29:02;;;;;;;;;;;;;;;28.79;44.16;99297.00;2095993;28;19926;-71
2022/08/13 04:30:03;;;;;;;;;;;;;;;28.80;44.13;99298.69;2092243;28;20244;-71
2022/08/13 04:31:05;;;;;;;;;;;;;;;28.79;44.09;99299.78;2097680;28;19977;-70
2022/08/13 04:32:05;;;;;;;;;;;;;;;28.79;44.16;99302.56;2091007;28;19956;-71
2022/08/13 04:33:05;;;;;;;;;;;;;;;28.78;44.21;99298.06;2088483;28;19920;-71
2022/08/13 04:34:06;;;;;;;;;;;;;;;28.78;44.09;99300.84;2091629;28;19959;-71
2022/08/13 04:35:06;;;;;;;;;;;;;;;28.79;44.21;99313.66;2090288;28;20277;-71
2022/08/13 04:36:07;;;;;;;;;;;;;;;28.79;44.26;99308.09;2096600;28;19920;-71
2022/08/13 04:37:09;;;;;;;;;;;;;;;28.78;44.20;99303.63;2091745;28;20372;-71
2022/08/13 04:38:10;;;;;;;;;;;;;;;28.78;44.17;99304.47;2097138;28;19920;-71
2022/08/13 04:39:10;;;;;;;;;;;;;;;28.79;44.19;99302.56;2093763;28;21254;-71
2022/08/13 04:40:12;;;;;;;;;;;;;;;28.79;44.08;99308.94;2090417;28;19908;-70
2022/08/13 04:41:12;;;;;;;;;;;;;;;28.79;44.34;99308.94;2090589;28;19977;-71
2022/08/13 04:42:13;;;;;;;;;;;;;;;28.79;44.29;99303.41;2093000;28;19940;-71
2022/08/13 04:43:14;;;;;;;;;;;;;;;28.79;44.34;99306.19;2090616;28;19924;-71
2022/08/13 04:44:14;;;;;;;;;;;;;;;28.79;44.27;99302.56;2095435;28;19919;-71
2022/08/13 04:45:14;;;;;;;;;;;;;;;28.79;44.18;99302.56;2094410;28;19912;-71
2022/08/13 04:46:15;;;;;;;;;;;;;;;28.79;44.29;99311.72;2095659;28;19912;-71
2022/08/13 04:47:16;;;;;;;;;;;;;;;28.79;44.11;99313.66;2093528;28;19965;-71
2022/08/13 04:48:17;;;;;;;;;;;;;;;28.79;44.19;99310.88;2093319;28;20378;-71
2022/08/13 04:49:17;;;;;;;;;;;;;;;28.79;44.40;99302.56;2093958;28;20259;-70
2022/08/13 04:50:18;;;;;;;;;;;;;;;28.80;44.18;99309.78;2093437;28;19912;-71
2022/08/13 04:51:19;;;;;;;;;;;;;;;28.79;44.47;99313.66;2090079;28;19920;-71
2022/08/13 04:52:19;;;;;;;;;;;;;;;28.79;44.37;99313.66;2094545;28;19940;-71
2022/08/13 04:53:21;;;;;;;;;;;;;;;28.79;44.44;99314.50;2093202;28;19905;-70
2022/08/13 04:54:22;;;;;;;;;;;;;;;28.79;44.35;99313.66;2088457;28;20371;-70
2022/08/13 04:55:23;;;;;;;;;;;;;;;28.78;44.68;99312.78;2090379;28;20806;-71
2022/08/13 04:56:23;;;;;;;;;;;;;;;28.79;44.43;99313.66;2088804;28;19932;-71
2022/08/13 04:57:23;;;;;;;;;;;;;;;28.79;44.44;99319.22;2094489;28;19916;-71
2022/08/13 04:58:29;;;;;;;;;;;;;;;28.78;44.49;99312.78;2094627;28;19914;-71
2022/08/13 04:59:29;;;;;;;;;;;;;;;28.79;44.68;99316.44;2092918;28;19959;-70
2022/08/13 05:00:33;;;;;;;;;;;;;;;28.78;44.63;99317.50;2094534;28;19919;-71
2022/08/13 05:01:34;;;;;;;;;;;;;;;28.77;44.79;99315.81;2094480;28;20039;-71
2022/08/13 05:02:38;;;;;;;;;;;;;;;28.77;44.71;99321.34;2095954;28;19912;-71
2022/08/13 05:03:39;;;;;;;;;;;;;;;28.77;45.00;99315.81;2095590;28;20302;-70
2022/08/13 05:04:40;;;;;;;;;;;;;;;28.77;44.72;99321.34;2093508;28;20362;-71
2022/08/13 05:05:42;;;;;;;;;;;;;;;28.76;44.76;99320.53;2095479;28;20437;-71
2022/08/13 05:06:43;;;;;;;;;;;;;;;28.78;44.84;99317.50;2092511;28;20404;-70
2022/08/13 05:07:49;;;;;;;;;;;;;;;28.78;44.58;99314.72;2096835;28;20772;-70
2022/08/13 05:08:50;;;;;;;;;;;;;;;28.78;44.63;99323.03;2095095;28;20367;-71
2022/08/13 05:09:50;;;;;;;;;;;;;;;28.78;44.65;99323.03;2089980;28;20282;-71
2022/08/13 05:10:51;;;;;;;;;;;;;;;28.77;44.62;99324.13;2097016;28;19916;-70
2022/08/13 05:11:51;;;;;;;;;;;;;;;28.78;44.56;99323.03;2093186;28;20362;-71
2022/08/13 05:12:52;;;;;;;;;;;;;;;28.77;44.67;99324.13;2095066;28;19978;-71
2022/08/13 05:13:52;;;;;;;;;;;;;;;28.78;44.80;99331.34;2089881;28;19943;-71
2022/08/13 05:14:52;;;;;;;;;;;;;;;28.78;44.85;99321.09;2094104;28;19962;-71
2022/08/13 05:15:54;;;;;;;;;;;;;;;28.78;44.79;99328.59;2092095;28;19965;-71
2022/08/13 05:16:54;;;;;;;;;;;;;;;28.77;44.71;99321.34;2093563;28;20399;-71
2022/08/13 05:17:55;;;;;;;;;;;;;;;28.78;44.91;99334.13;2093847;28;20581;-71
2022/08/13 05:18:55;;;;;;;;;;;;;;;28.77;44.98;99326.91;2090613;28;20216;-71
2022/08/13 05:19:56;;;;;;;;;;;;;;;28.78;44.94;99325.81;2088651;28;19916;-71
2022/08/13 05:20:57;;;;;;;;;;;;;;;28.77;44.92;99326.91;2096880;28;19919;-70
2022/08/13 05:21:57;;;;;;;;;;;;;;;28.77;45.01;99321.34;2091736;28;20204;-71
2022/08/13 05:22:57;;;;;;;;;;;;;;;28.77;44.93;99321.34;2092695;28;19908;-70
2022/08/13 05:23:58;;;;;;;;;;;;;;;28.77;45.08;99324.13;2089495;28;19977;-70
2022/08/13 05:24:58;;;;;;;;;;;;;;;28.76;45.14;99314.97;2091777;28;19908;-70
2022/08/13 05:25:59;;;;;;;;;;;;;;;28.76;45.23;99314.97;2089407;28;19967;-71
2022/08/13 05:26:59;;;;;;;;;;;;;;;28.76;45.33;99320.53;2088409;28;19913;-71
2022/08/13 05:28:00;;;;;;;;;;;;;;;28.76;45.14;99320.53;2094298;28;19904;-71
2022/08/13 05:29:07;;;;;;;;;;;;;;;28.76;45.16;99326.06;2092459;28;19920;-71